UAE32A OMDB-OERK
Flight info
| Callsign | UAE32A |
|---|---|
| Flight time | 1h 53m |
| Altitude | 34000 |
| Route | ANVIX R401 GIDIS G783 RIGIL M628 AMBAG M321 NAGUB |
| Aircraft | B77W/H-SDE1E2E3FGHIJ2J3J4J5M1RWXY/LB1D1 |
Departure
| Time | 2026-04-24 15:09 |
|---|---|
| Airport | Dubai International Airport (OMDB) |
Arrival
| Time | 2026-04-24 17:03 |
|---|---|
| Airport | King Khalid International Airport (OERK) |
| Time | Latitude | Longitude | Altitude | Speed | Heading |
|---|---|---|---|---|---|
| 2026-04-24 14:40 | 25.24386 | 55.37292 | 31 ft | 0 kts | 211° |
| 2026-04-24 15:01 | 25.24404 | 55.37304 | 31 ft | 4 kts | 211° |
| 2026-04-24 15:01 | 25.24427 | 55.37319 | 31 ft | 4 kts | 211° |
| 2026-04-24 15:01 | 25.24446 | 55.37332 | 32 ft | 4 kts | 201° |
| 2026-04-24 15:02 | 25.24470 | 55.37335 | 32 ft | 4 kts | 155° |
| 2026-04-24 15:02 | 25.24489 | 55.37317 | 32 ft | 4 kts | 122° |
| 2026-04-24 15:02 | 25.24502 | 55.37293 | 32 ft | 4 kts | 122° |
| 2026-04-24 15:02 | 25.24509 | 55.37282 | 32 ft | 0 kts | 122° |
| 2026-04-24 15:05 | 25.24504 | 55.37289 | 32 ft | 6 kts | 122° |
| 2026-04-24 15:05 | 25.24468 | 55.37354 | 32 ft | 11 kts | 122° |
| 2026-04-24 15:05 | 25.24428 | 55.37425 | 30 ft | 11 kts | 122° |
| 2026-04-24 15:05 | 25.24385 | 55.37501 | 29 ft | 12 kts | 122° |
| 2026-04-24 15:06 | 25.24341 | 55.37580 | 30 ft | 12 kts | 122° |
| 2026-04-24 15:06 | 25.24295 | 55.37662 | 29 ft | 13 kts | 122° |
| 2026-04-24 15:06 | 25.24261 | 55.37749 | 30 ft | 12 kts | 79° |
| 2026-04-24 15:06 | 25.24322 | 55.37815 | 26 ft | 12 kts | 34° |
| 2026-04-24 15:07 | 25.24345 | 55.37832 | 27 ft | 0 kts | 34° |
| 2026-04-24 15:07 | 25.24356 | 55.37840 | 27 ft | 8 kts | 34° |
| 2026-04-24 15:07 | 25.24424 | 55.37892 | 29 ft | 13 kts | 34° |
| 2026-04-24 15:07 | 25.24497 | 55.37947 | 30 ft | 13 kts | 34° |
| 2026-04-24 15:08 | 25.24572 | 55.38004 | 28 ft | 14 kts | 34° |
| 2026-04-24 15:08 | 25.24652 | 55.38061 | 29 ft | 14 kts | 31° |
| 2026-04-24 15:08 | 25.24728 | 55.38112 | 31 ft | 10 kts | 31° |
| 2026-04-24 15:08 | 25.24773 | 55.38097 | 31 ft | 8 kts | 296° |
| 2026-04-24 15:09 | 25.24847 | 55.37953 | 30 ft | 44 kts | 301° |
| 2026-04-24 15:09 | 25.25157 | 55.37392 | 32 ft | 125 kts | 301° |
| 2026-04-24 15:09 | 25.25731 | 55.36348 | 85 ft | 182 kts | 301° |
| 2026-04-24 15:09 | 25.26367 | 55.35180 | 843 ft | 176 kts | 303° |
| 2026-04-24 15:10 | 25.27007 | 55.33996 | 1574 ft | 183 kts | 303° |
| 2026-04-24 15:10 | 25.27702 | 55.32761 | 2174 ft | 191 kts | 303° |
| 2026-04-24 15:10 | 25.28396 | 55.31484 | 2850 ft | 194 kts | 302° |
| 2026-04-24 15:10 | 25.29089 | 55.30218 | 3578 ft | 193 kts | 294° |
| 2026-04-24 15:11 | 25.29216 | 55.28761 | 4124 ft | 196 kts | 253° |
| 2026-04-24 15:11 | 25.28668 | 55.27397 | 4759 ft | 198 kts | 246° |
| 2026-04-24 15:11 | 25.28080 | 55.26002 | 5425 ft | 202 kts | 246° |
| 2026-04-24 15:11 | 25.27483 | 55.24591 | 6114 ft | 201 kts | 246° |
| 2026-04-24 15:12 | 25.26893 | 55.23200 | 6728 ft | 203 kts | 246° |
| 2026-04-24 15:12 | 25.25629 | 55.20222 | 7253 ft | 235 kts | 246° |
| 2026-04-24 15:12 | 25.24864 | 55.18495 | 7456 ft | 261 kts | 238° |
| 2026-04-24 15:13 | 25.23521 | 55.17119 | 7962 ft | 277 kts | 208° |
| 2026-04-24 15:13 | 25.21604 | 55.16686 | 8695 ft | 286 kts | 181° |
| 2026-04-24 15:13 | 25.19622 | 55.17069 | 9435 ft | 295 kts | 158° |
| 2026-04-24 15:13 | 25.17968 | 55.18419 | 10353 ft | 300 kts | 133° |
| 2026-04-24 15:14 | 25.16857 | 55.20363 | 11106 ft | 306 kts | 120° |
| 2026-04-24 15:14 | 25.15863 | 55.22488 | 11937 ft | 313 kts | 119° |
| 2026-04-24 15:14 | 25.14852 | 55.24641 | 12937 ft | 316 kts | 120° |
| 2026-04-24 15:14 | 25.13836 | 55.26782 | 13858 ft | 322 kts | 120° |
| 2026-04-24 15:15 | 25.12790 | 55.28979 | 14263 ft | 321 kts | 120° |
| 2026-04-24 15:15 | 25.11741 | 55.31166 | 14700 ft | 325 kts | 120° |
| 2026-04-24 15:15 | 25.10667 | 55.33404 | 14894 ft | 332 kts | 118° |
| 2026-04-24 15:15 | 25.09694 | 55.35692 | 15653 ft | 335 kts | 116° |
| 2026-04-24 15:16 | 25.08735 | 55.38068 | 16647 ft | 338 kts | 115° |
| 2026-04-24 15:16 | 25.07767 | 55.40449 | 17589 ft | 342 kts | 115° |
| 2026-04-24 15:16 | 25.06796 | 55.42855 | 18362 ft | 353 kts | 114° |
| 2026-04-24 15:16 | 25.05795 | 55.45449 | 18609 ft | 379 kts | 114° |
| 2026-04-24 15:17 | 25.04735 | 55.48236 | 18791 ft | 406 kts | 114° |
| 2026-04-24 15:17 | 25.03621 | 55.51151 | 19089 ft | 426 kts | 114° |
| 2026-04-24 15:17 | 25.02442 | 55.54214 | 19673 ft | 437 kts | 114° |
| 2026-04-24 15:17 | 25.01144 | 55.57291 | 20348 ft | 443 kts | 120° |
| 2026-04-24 15:18 | 24.99580 | 55.60204 | 21119 ft | 446 kts | 124° |
| 2026-04-24 15:18 | 24.97893 | 55.63107 | 21909 ft | 450 kts | 124° |
| 2026-04-24 15:18 | 24.96244 | 55.66020 | 22642 ft | 455 kts | 123° |
| 2026-04-24 15:18 | 24.94596 | 55.69034 | 23330 ft | 461 kts | 123° |
| 2026-04-24 15:19 | 24.92873 | 55.72041 | 23892 ft | 465 kts | 127° |
| 2026-04-24 15:19 | 24.90960 | 55.74942 | 24462 ft | 469 kts | 129° |
| 2026-04-24 15:19 | 24.88983 | 55.77793 | 25051 ft | 473 kts | 129° |
| 2026-04-24 15:19 | 24.86986 | 55.80706 | 25660 ft | 477 kts | 129° |
| 2026-04-24 15:20 | 24.85001 | 55.83671 | 26231 ft | 481 kts | 128° |
| 2026-04-24 15:20 | 24.83034 | 55.86635 | 26784 ft | 486 kts | 128° |
| 2026-04-24 15:20 | 24.80969 | 55.89592 | 27242 ft | 486 kts | 134° |
| 2026-04-24 15:20 | 24.78369 | 55.91945 | 27573 ft | 487 kts | 154° |
| 2026-04-24 15:21 | 24.75229 | 55.93342 | 28166 ft | 483 kts | 168° |
| 2026-04-24 15:21 | 24.71960 | 55.93834 | 28749 ft | 478 kts | 183° |
| 2026-04-24 15:21 | 24.68623 | 55.93651 | 29324 ft | 479 kts | 187° |
| 2026-04-24 15:21 | 24.65302 | 55.93447 | 29867 ft | 480 kts | 187° |
| 2026-04-24 15:22 | 24.61996 | 55.92883 | 30340 ft | 477 kts | 199° |
| 2026-04-24 15:22 | 24.58894 | 55.91590 | 30788 ft | 475 kts | 209° |
| 2026-04-24 15:22 | 24.56113 | 55.89749 | 31446 ft | 467 kts | 220° |
| 2026-04-24 15:23 | 24.51302 | 55.85058 | 32737 ft | 459 kts | 225° |
| 2026-04-24 15:23 | 24.46582 | 55.80413 | 33845 ft | 458 kts | 224° |
| 2026-04-24 15:23 | 24.44180 | 55.78092 | 33862 ft | 458 kts | 224° |
| 2026-04-24 15:25 | 24.33051 | 55.67405 | 33891 ft | 457 kts | 224° |
| 2026-04-24 15:26 | 24.18388 | 55.58222 | 33889 ft | 468 kts | 198° |
| 2026-04-24 15:27 | 24.00595 | 55.53083 | 33870 ft | 465 kts | 199° |
| 2026-04-24 15:29 | 23.81933 | 55.47529 | 33861 ft | 463 kts | 199° |
| 2026-04-24 15:31 | 23.60199 | 55.41055 | 33859 ft | 463 kts | 199° |
| 2026-04-24 15:33 | 23.35308 | 55.33705 | 33834 ft | 464 kts | 198° |
| 2026-04-24 15:34 | 23.19666 | 55.29111 | 33838 ft | 467 kts | 198° |
| 2026-04-24 15:35 | 23.04661 | 55.23138 | 33834 ft | 455 kts | 229° |
| 2026-04-24 15:35 | 23.02734 | 55.20406 | 33850 ft | 452 kts | 241° |
| 2026-04-24 15:36 | 23.01421 | 55.17318 | 33823 ft | 451 kts | 255° |
| 2026-04-24 15:36 | 22.99497 | 55.07340 | 33825 ft | 453 kts | 259° |
| 2026-04-24 15:37 | 22.98251 | 55.00621 | 33834 ft | 455 kts | 259° |
| 2026-04-24 15:37 | 22.96955 | 54.93931 | 33819 ft | 455 kts | 259° |
| 2026-04-24 15:38 | 22.95624 | 54.87199 | 33816 ft | 454 kts | 258° |
| 2026-04-24 15:38 | 22.94303 | 54.80547 | 33816 ft | 453 kts | 258° |
| 2026-04-24 15:39 | 22.92950 | 54.73740 | 33832 ft | 466 kts | 259° |
| 2026-04-24 15:39 | 22.91584 | 54.66880 | 33813 ft | 464 kts | 259° |
| 2026-04-24 15:40 | 22.90225 | 54.60076 | 33813 ft | 461 kts | 259° |
| 2026-04-24 15:40 | 22.88870 | 54.53301 | 33819 ft | 459 kts | 259° |
| 2026-04-24 15:41 | 22.87519 | 54.46560 | 33831 ft | 458 kts | 259° |
| 2026-04-24 15:41 | 22.86156 | 54.39778 | 33825 ft | 457 kts | 259° |
| 2026-04-24 15:42 | 22.84804 | 54.33062 | 33826 ft | 456 kts | 259° |
| 2026-04-24 15:42 | 22.83450 | 54.26354 | 33831 ft | 456 kts | 259° |
| 2026-04-24 15:43 | 22.82097 | 54.19669 | 33834 ft | 454 kts | 259° |
| 2026-04-24 15:43 | 22.80741 | 54.12976 | 33828 ft | 452 kts | 259° |
| 2026-04-24 15:44 | 22.79393 | 54.06342 | 33828 ft | 451 kts | 259° |
| 2026-04-24 15:44 | 22.78291 | 53.99709 | 33831 ft | 448 kts | 265° |
| 2026-04-24 15:45 | 22.78157 | 53.92965 | 33828 ft | 446 kts | 273° |
| 2026-04-24 15:45 | 22.78411 | 53.86269 | 33841 ft | 446 kts | 273° |
| 2026-04-24 15:46 | 22.78656 | 53.79536 | 33842 ft | 446 kts | 272° |
| 2026-04-24 15:46 | 22.78882 | 53.72834 | 33835 ft | 446 kts | 272° |
| 2026-04-24 15:47 | 22.79097 | 53.66125 | 33835 ft | 446 kts | 272° |
| 2026-04-24 15:47 | 22.79310 | 53.59384 | 33835 ft | 446 kts | 272° |
| 2026-04-24 15:48 | 22.79519 | 53.52660 | 33838 ft | 447 kts | 272° |
| 2026-04-24 15:48 | 22.79726 | 53.45945 | 33837 ft | 447 kts | 272° |
| 2026-04-24 15:49 | 22.79930 | 53.39225 | 33842 ft | 447 kts | 272° |
| 2026-04-24 15:49 | 22.80133 | 53.32484 | 33843 ft | 448 kts | 272° |
| 2026-04-24 15:50 | 22.80332 | 53.25732 | 33843 ft | 448 kts | 272° |
| 2026-04-24 15:50 | 22.80529 | 53.18986 | 33839 ft | 449 kts | 272° |
| 2026-04-24 15:51 | 22.80722 | 53.12243 | 33849 ft | 449 kts | 272° |
| 2026-04-24 15:51 | 22.80913 | 53.05488 | 33844 ft | 450 kts | 272° |
| 2026-04-24 15:52 | 22.81102 | 52.98712 | 33859 ft | 450 kts | 272° |
| 2026-04-24 15:52 | 22.81289 | 52.91907 | 33851 ft | 451 kts | 272° |
| 2026-04-24 15:53 | 22.81472 | 52.85139 | 33848 ft | 451 kts | 272° |
| 2026-04-24 15:53 | 22.81653 | 52.78314 | 33851 ft | 451 kts | 272° |
| 2026-04-24 15:54 | 22.81831 | 52.71540 | 33848 ft | 451 kts | 272° |
| 2026-04-24 15:54 | 22.82006 | 52.64744 | 33852 ft | 452 kts | 272° |
| 2026-04-24 15:55 | 22.82179 | 52.57907 | 33851 ft | 453 kts | 272° |
| 2026-04-24 15:55 | 22.82349 | 52.51087 | 33854 ft | 453 kts | 272° |
| 2026-04-24 15:56 | 22.82508 | 52.44282 | 33857 ft | 454 kts | 272° |
| 2026-04-24 15:56 | 22.82651 | 52.37426 | 33856 ft | 454 kts | 272° |
| 2026-04-24 15:57 | 22.82790 | 52.30582 | 33858 ft | 455 kts | 272° |
| 2026-04-24 15:57 | 22.82929 | 52.23712 | 33850 ft | 454 kts | 271° |
| 2026-04-24 15:58 | 22.83065 | 52.16885 | 33855 ft | 454 kts | 271° |
| 2026-04-24 15:58 | 22.83199 | 52.10029 | 33866 ft | 454 kts | 271° |
| 2026-04-24 15:59 | 22.83329 | 52.03195 | 33857 ft | 455 kts | 271° |
| 2026-04-24 15:59 | 22.83457 | 51.96343 | 33862 ft | 455 kts | 271° |
| 2026-04-24 16:00 | 22.83582 | 51.89462 | 33866 ft | 455 kts | 271° |
| 2026-04-24 16:00 | 22.83704 | 51.82619 | 33861 ft | 455 kts | 271° |
| 2026-04-24 16:01 | 22.83823 | 51.75770 | 33860 ft | 456 kts | 271° |
| 2026-04-24 16:01 | 22.83940 | 51.68869 | 33866 ft | 456 kts | 271° |
| 2026-04-24 16:02 | 22.84053 | 51.62006 | 33864 ft | 457 kts | 271° |
| 2026-04-24 16:02 | 22.84164 | 51.55132 | 33869 ft | 457 kts | 271° |
| 2026-04-24 16:03 | 22.84273 | 51.48214 | 33868 ft | 458 kts | 271° |
| 2026-04-24 16:03 | 22.84602 | 51.41350 | 33874 ft | 458 kts | 274° |
| 2026-04-24 16:04 | 22.85109 | 51.34438 | 33873 ft | 459 kts | 274° |
| 2026-04-24 16:04 | 22.85600 | 51.27553 | 33877 ft | 458 kts | 274° |
| 2026-04-24 16:05 | 22.86301 | 51.17233 | 33871 ft | 458 kts | 273° |
| 2026-04-24 16:06 | 22.86996 | 51.06938 | 33877 ft | 457 kts | 273° |
| 2026-04-24 16:07 | 22.87688 | 50.96631 | 33879 ft | 457 kts | 273° |
| 2026-04-24 16:07 | 22.88373 | 50.86322 | 33879 ft | 456 kts | 273° |
| 2026-04-24 16:08 | 22.89048 | 50.76055 | 33874 ft | 455 kts | 273° |
| 2026-04-24 16:09 | 22.89716 | 50.65799 | 33872 ft | 453 kts | 273° |
| 2026-04-24 16:09 | 22.90155 | 50.58993 | 33886 ft | 453 kts | 272° |
| 2026-04-24 16:11 | 22.91237 | 50.42037 | 33874 ft | 449 kts | 272° |
| 2026-04-24 16:11 | 22.91662 | 50.35298 | 33871 ft | 448 kts | 272° |
| 2026-04-24 16:12 | 22.92294 | 50.25196 | 33871 ft | 447 kts | 272° |
| 2026-04-24 16:13 | 22.92917 | 50.15126 | 33872 ft | 446 kts | 272° |
| 2026-04-24 16:14 | 22.93739 | 50.01692 | 33872 ft | 447 kts | 272° |
| 2026-04-24 16:14 | 22.94283 | 49.92701 | 33868 ft | 447 kts | 272° |
| 2026-04-24 16:15 | 22.94885 | 49.82641 | 33861 ft | 445 kts | 272° |
| 2026-04-24 16:16 | 22.95480 | 49.72600 | 33865 ft | 443 kts | 272° |
| 2026-04-24 16:17 | 22.96453 | 49.55928 | 33864 ft | 443 kts | 272° |
| 2026-04-24 16:18 | 22.97219 | 49.42577 | 33866 ft | 445 kts | 272° |
| 2026-04-24 16:19 | 22.97789 | 49.32532 | 33865 ft | 446 kts | 272° |
| 2026-04-24 16:20 | 22.98354 | 49.22445 | 33878 ft | 447 kts | 272° |
| 2026-04-24 16:20 | 22.98916 | 49.12297 | 33871 ft | 450 kts | 272° |
| 2026-04-24 16:21 | 22.99475 | 49.02104 | 33863 ft | 451 kts | 272° |
| 2026-04-24 16:22 | 22.99907 | 48.95332 | 33864 ft | 450 kts | 273° |
| 2026-04-24 16:22 | 23.00761 | 48.85180 | 33876 ft | 449 kts | 274° |
| 2026-04-24 16:23 | 23.01320 | 48.78436 | 33869 ft | 448 kts | 273° |
| 2026-04-24 16:24 | 23.02125 | 48.68376 | 33867 ft | 448 kts | 273° |
| 2026-04-24 16:24 | 23.02657 | 48.61629 | 33881 ft | 447 kts | 273° |
| 2026-04-24 16:25 | 23.03185 | 48.54916 | 33877 ft | 449 kts | 274° |
| 2026-04-24 16:25 | 23.03714 | 48.48136 | 33878 ft | 451 kts | 273° |
| 2026-04-24 16:26 | 23.04507 | 48.37933 | 33883 ft | 451 kts | 273° |
| 2026-04-24 16:26 | 23.05022 | 48.31263 | 33163 ft | 441 kts | 273° |
| 2026-04-24 16:27 | 23.05276 | 48.27958 | 32616 ft | 437 kts | 273° |
| 2026-04-24 16:27 | 23.05528 | 48.24664 | 32030 ft | 433 kts | 273° |
| 2026-04-24 16:27 | 23.05775 | 48.21436 | 31468 ft | 430 kts | 273° |
| 2026-04-24 16:27 | 23.06022 | 48.18191 | 30904 ft | 427 kts | 273° |
| 2026-04-24 16:28 | 23.06263 | 48.15008 | 30360 ft | 425 kts | 273° |
| 2026-04-24 16:28 | 23.06505 | 48.11814 | 29761 ft | 423 kts | 273° |
| 2026-04-24 16:28 | 23.06981 | 48.05516 | 28544 ft | 416 kts | 273° |
| 2026-04-24 16:29 | 23.07216 | 48.02383 | 27975 ft | 412 kts | 273° |
| 2026-04-24 16:29 | 23.07449 | 47.99287 | 27422 ft | 408 kts | 272° |
| 2026-04-24 16:29 | 23.07902 | 47.93208 | 26343 ft | 402 kts | 272° |
| 2026-04-24 16:30 | 23.08347 | 47.87221 | 25296 ft | 396 kts | 272° |
| 2026-04-24 16:30 | 23.08567 | 47.84247 | 24768 ft | 393 kts | 272° |
| 2026-04-24 16:30 | 23.08822 | 47.81288 | 24230 ft | 388 kts | 277° |
| 2026-04-24 16:31 | 23.09683 | 47.78530 | 23723 ft | 394 kts | 294° |
| 2026-04-24 16:31 | 23.11227 | 47.76055 | 23212 ft | 399 kts | 305° |
| 2026-04-24 16:31 | 23.13284 | 47.73988 | 22656 ft | 404 kts | 320° |
| 2026-04-24 16:31 | 23.15642 | 47.72374 | 22187 ft | 402 kts | 323° |
| 2026-04-24 16:32 | 23.18046 | 47.70805 | 21701 ft | 399 kts | 324° |
| 2026-04-24 16:32 | 23.20425 | 47.69256 | 21227 ft | 396 kts | 324° |
| 2026-04-24 16:32 | 23.22747 | 47.67737 | 21023 ft | 386 kts | 324° |
| 2026-04-24 16:32 | 23.25025 | 47.66259 | 20997 ft | 376 kts | 324° |
| 2026-04-24 16:33 | 23.27276 | 47.64796 | 21012 ft | 381 kts | 324° |
| 2026-04-24 16:33 | 23.29563 | 47.63303 | 21015 ft | 389 kts | 324° |
| 2026-04-24 16:33 | 23.31898 | 47.61778 | 21010 ft | 391 kts | 324° |
| 2026-04-24 16:33 | 23.34239 | 47.60253 | 20901 ft | 392 kts | 324° |
| 2026-04-24 16:34 | 23.36571 | 47.58729 | 20436 ft | 395 kts | 324° |
| 2026-04-24 16:34 | 23.38886 | 47.57121 | 19996 ft | 392 kts | 322° |
| 2026-04-24 16:34 | 23.41152 | 47.55490 | 19650 ft | 386 kts | 322° |
| 2026-04-24 16:34 | 23.43366 | 47.53907 | 19296 ft | 381 kts | 322° |
| 2026-04-24 16:35 | 23.45582 | 47.52329 | 18944 ft | 375 kts | 321° |
| 2026-04-24 16:35 | 23.47480 | 47.50456 | 18571 ft | 360 kts | 303° |
| 2026-04-24 16:35 | 23.48932 | 47.48238 | 18276 ft | 366 kts | 301° |
| 2026-04-24 16:35 | 23.50414 | 47.45970 | 17917 ft | 373 kts | 302° |
| 2026-04-24 16:36 | 23.52100 | 47.43787 | 17527 ft | 377 kts | 312° |
| 2026-04-24 16:36 | 23.54106 | 47.41970 | 17143 ft | 379 kts | 321° |
| 2026-04-24 16:36 | 23.56388 | 47.40427 | 16795 ft | 391 kts | 327° |
| 2026-04-24 16:36 | 23.58794 | 47.38952 | 16505 ft | 398 kts | 328° |
| 2026-04-24 16:37 | 23.61194 | 47.37494 | 16335 ft | 398 kts | 327° |
| 2026-04-24 16:37 | 23.63627 | 47.36016 | 16156 ft | 398 kts | 327° |
| 2026-04-24 16:37 | 23.66049 | 47.34539 | 15913 ft | 400 kts | 327° |
| 2026-04-24 16:37 | 23.68488 | 47.33045 | 15650 ft | 401 kts | 327° |
| 2026-04-24 16:38 | 23.70899 | 47.31564 | 15190 ft | 400 kts | 327° |
| 2026-04-24 16:38 | 23.73313 | 47.30076 | 14769 ft | 396 kts | 328° |
| 2026-04-24 16:38 | 23.75691 | 47.28609 | 14413 ft | 388 kts | 328° |
| 2026-04-24 16:38 | 23.78032 | 47.27163 | 14065 ft | 383 kts | 328° |
| 2026-04-24 16:39 | 23.80339 | 47.25735 | 13722 ft | 379 kts | 328° |
| 2026-04-24 16:39 | 23.82619 | 47.24325 | 13511 ft | 369 kts | 328° |
| 2026-04-24 16:39 | 23.84819 | 47.22963 | 13434 ft | 357 kts | 328° |
| 2026-04-24 16:39 | 23.86956 | 47.21639 | 13310 ft | 358 kts | 328° |
| 2026-04-24 16:40 | 23.89129 | 47.20290 | 13192 ft | 357 kts | 328° |
| 2026-04-24 16:40 | 23.91290 | 47.18949 | 13082 ft | 356 kts | 328° |
| 2026-04-24 16:40 | 23.93429 | 47.17621 | 12934 ft | 355 kts | 328° |
| 2026-04-24 16:40 | 23.95582 | 47.16285 | 12821 ft | 354 kts | 328° |
| 2026-04-24 16:41 | 23.97699 | 47.14971 | 12714 ft | 353 kts | 327° |
| 2026-04-24 16:41 | 23.99841 | 47.13641 | 12563 ft | 353 kts | 327° |
| 2026-04-24 16:41 | 24.01985 | 47.12308 | 12453 ft | 353 kts | 327° |
| 2026-04-24 16:41 | 24.04108 | 47.10989 | 12316 ft | 353 kts | 327° |
| 2026-04-24 16:42 | 24.06244 | 47.09660 | 12194 ft | 353 kts | 327° |
| 2026-04-24 16:42 | 24.08389 | 47.08325 | 12064 ft | 353 kts | 328° |
| 2026-04-24 16:42 | 24.10508 | 47.07007 | 11939 ft | 353 kts | 328° |
| 2026-04-24 16:42 | 24.12652 | 47.05672 | 11809 ft | 353 kts | 328° |
| 2026-04-24 16:43 | 24.14761 | 47.04358 | 11699 ft | 353 kts | 328° |
| 2026-04-24 16:43 | 24.16902 | 47.03024 | 11553 ft | 353 kts | 328° |
| 2026-04-24 16:43 | 24.19047 | 47.01688 | 11443 ft | 352 kts | 327° |
| 2026-04-24 16:43 | 24.21154 | 47.00374 | 11304 ft | 352 kts | 327° |
| 2026-04-24 16:44 | 24.23286 | 46.99045 | 11191 ft | 351 kts | 327° |
| 2026-04-24 16:44 | 24.25406 | 46.97722 | 11060 ft | 350 kts | 327° |
| 2026-04-24 16:44 | 24.27501 | 46.96415 | 10886 ft | 349 kts | 328° |
| 2026-04-24 16:44 | 24.29624 | 46.95089 | 10787 ft | 349 kts | 328° |
| 2026-04-24 16:45 | 24.31712 | 46.93784 | 10683 ft | 349 kts | 328° |
| 2026-04-24 16:45 | 24.33824 | 46.92464 | 10543 ft | 349 kts | 328° |
| 2026-04-24 16:45 | 24.35931 | 46.91146 | 10418 ft | 349 kts | 328° |
| 2026-04-24 16:45 | 24.38034 | 46.89833 | 10331 ft | 341 kts | 327° |
| 2026-04-24 16:46 | 24.40047 | 46.88576 | 10248 ft | 330 kts | 327° |
| 2026-04-24 16:46 | 24.42015 | 46.87346 | 10106 ft | 321 kts | 327° |
| 2026-04-24 16:46 | 24.43915 | 46.86157 | 9894 ft | 315 kts | 327° |
| 2026-04-24 16:46 | 24.45826 | 46.84959 | 9537 ft | 314 kts | 327° |
| 2026-04-24 16:47 | 24.47728 | 46.83765 | 9205 ft | 313 kts | 328° |
| 2026-04-24 16:47 | 24.49598 | 46.82591 | 8881 ft | 311 kts | 328° |
| 2026-04-24 16:47 | 24.51484 | 46.81408 | 8570 ft | 309 kts | 329° |
| 2026-04-24 16:47 | 24.53335 | 46.80247 | 8315 ft | 306 kts | 329° |
| 2026-04-24 16:48 | 24.55166 | 46.79099 | 8233 ft | 300 kts | 329° |
| 2026-04-24 16:48 | 24.56971 | 46.77966 | 8185 ft | 304 kts | 329° |
| 2026-04-24 16:48 | 24.58827 | 46.76793 | 8123 ft | 309 kts | 328° |
| 2026-04-24 16:48 | 24.60693 | 46.75612 | 8055 ft | 309 kts | 328° |
| 2026-04-24 16:49 | 24.62564 | 46.74432 | 7990 ft | 308 kts | 328° |
| 2026-04-24 16:49 | 24.64392 | 46.73282 | 7904 ft | 307 kts | 329° |
| 2026-04-24 16:49 | 24.66255 | 46.72111 | 7846 ft | 306 kts | 329° |
| 2026-04-24 16:49 | 24.68099 | 46.70953 | 7766 ft | 301 kts | 329° |
| 2026-04-24 16:50 | 24.69298 | 46.70200 | 7715 ft | 296 kts | 329° |
| 2026-04-24 16:50 | 24.71619 | 46.68740 | 7593 ft | 283 kts | 329° |
| 2026-04-24 16:50 | 24.73330 | 46.67664 | 7505 ft | 282 kts | 329° |
| 2026-04-24 16:50 | 24.75024 | 46.66598 | 7455 ft | 283 kts | 328° |
| 2026-04-24 16:51 | 24.76740 | 46.65518 | 7387 ft | 282 kts | 328° |
| 2026-04-24 16:51 | 24.78452 | 46.64439 | 7318 ft | 282 kts | 328° |
| 2026-04-24 16:51 | 24.80137 | 46.63379 | 7243 ft | 281 kts | 328° |
| 2026-04-24 16:51 | 24.81846 | 46.62302 | 7170 ft | 281 kts | 329° |
| 2026-04-24 16:52 | 24.83519 | 46.61249 | 7100 ft | 279 kts | 329° |
| 2026-04-24 16:52 | 24.85201 | 46.60189 | 7042 ft | 276 kts | 329° |
| 2026-04-24 16:52 | 24.86873 | 46.59133 | 7008 ft | 276 kts | 329° |
| 2026-04-24 16:52 | 24.88540 | 46.58080 | 7009 ft | 278 kts | 329° |
| 2026-04-24 16:53 | 24.90215 | 46.57021 | 7010 ft | 281 kts | 329° |
| 2026-04-24 16:53 | 24.91914 | 46.55944 | 7000 ft | 278 kts | 329° |
| 2026-04-24 16:53 | 24.93556 | 46.54902 | 6988 ft | 270 kts | 328° |
| 2026-04-24 16:53 | 24.95172 | 46.53874 | 6987 ft | 269 kts | 328° |
| 2026-04-24 16:54 | 24.96813 | 46.52831 | 7004 ft | 274 kts | 328° |
| 2026-04-24 16:54 | 24.98504 | 46.51754 | 6782 ft | 282 kts | 329° |
| 2026-04-24 16:54 | 25.00189 | 46.50682 | 6589 ft | 281 kts | 329° |
| 2026-04-24 16:54 | 25.01872 | 46.49617 | 6489 ft | 275 kts | 329° |
| 2026-04-24 16:55 | 25.03512 | 46.48580 | 6376 ft | 268 kts | 329° |
| 2026-04-24 16:55 | 25.05131 | 46.47556 | 6276 ft | 272 kts | 329° |
| 2026-04-24 16:55 | 25.06774 | 46.46514 | 6189 ft | 270 kts | 330° |
| 2026-04-24 16:55 | 25.08461 | 46.45680 | 6037 ft | 261 kts | 353° |
| 2026-04-24 16:56 | 25.10206 | 46.45799 | 5975 ft | 255 kts | 23° |
| 2026-04-24 16:56 | 25.11721 | 46.46775 | 5830 ft | 250 kts | 45° |
| 2026-04-24 16:56 | 25.12793 | 46.48219 | 5666 ft | 243 kts | 62° |
| 2026-04-24 16:56 | 25.13633 | 46.49830 | 5494 ft | 241 kts | 65° |
| 2026-04-24 16:57 | 25.14449 | 46.51455 | 5329 ft | 240 kts | 65° |
| 2026-04-24 16:57 | 25.15191 | 46.53051 | 5147 ft | 230 kts | 75° |
| 2026-04-24 16:57 | 25.15251 | 46.54729 | 5076 ft | 217 kts | 108° |
| 2026-04-24 16:57 | 25.14515 | 46.56152 | 5026 ft | 209 kts | 131° |
| 2026-04-24 16:58 | 25.13422 | 46.57113 | 5020 ft | 197 kts | 145° |
| 2026-04-24 16:58 | 25.12299 | 46.57856 | 5015 ft | 179 kts | 146° |
| 2026-04-24 16:58 | 25.11215 | 46.58565 | 5009 ft | 183 kts | 146° |
| 2026-04-24 16:58 | 25.10124 | 46.59270 | 5004 ft | 179 kts | 147° |
| 2026-04-24 16:59 | 25.09059 | 46.59940 | 4986 ft | 178 kts | 147° |
| 2026-04-24 16:59 | 25.07966 | 46.60645 | 4773 ft | 185 kts | 145° |
| 2026-04-24 16:59 | 25.05836 | 46.61939 | 4083 ft | 176 kts | 146° |
| 2026-04-24 17:00 | 25.04768 | 46.62625 | 3887 ft | 176 kts | 142° |
| 2026-04-24 17:00 | 25.02780 | 46.63955 | 3145 ft | 168 kts | 144° |
| 2026-04-24 17:00 | 25.01751 | 46.64519 | 2969 ft | 162 kts | 142° |
| 2026-04-24 17:01 | 24.99912 | 46.65717 | 2660 ft | 152 kts | 143° |
| 2026-04-24 17:01 | 24.99008 | 46.66304 | 2498 ft | 149 kts | 143° |
| 2026-04-24 17:02 | 24.97473 | 46.67255 | 2202 ft | 152 kts | 144° |
| 2026-04-24 17:02 | 24.96576 | 46.67808 | 2090 ft | 139 kts | 143° |
| 2026-04-24 17:02 | 24.95823 | 46.68295 | 2076 ft | 109 kts | 150° |
| 2026-04-24 17:02 | 24.95276 | 46.68647 | 2076 ft | 73 kts | 151° |
| 2026-04-24 17:03 | 24.94583 | 46.69078 | 2076 ft | 50 kts | 150° |
| 2026-04-24 17:03 | 24.94392 | 46.69201 | 2078 ft | 18 kts | 138° |
| 2026-04-24 17:03 | 24.94414 | 46.69327 | 2078 ft | 18 kts | 60° |
| 2026-04-24 17:04 | 24.94471 | 46.69436 | 2080 ft | 13 kts | 60° |
| 2026-04-24 17:04 | 24.94564 | 46.69610 | 2080 ft | 13 kts | 59° |
| 2026-04-24 17:04 | 24.94610 | 46.69699 | 2079 ft | 13 kts | 60° |
| 2026-04-24 17:05 | 24.94656 | 46.69787 | 2081 ft | 13 kts | 59° |
| 2026-04-24 17:05 | 24.94703 | 46.69874 | 2079 ft | 13 kts | 59° |
| 2026-04-24 17:05 | 24.94795 | 46.70050 | 2079 ft | 13 kts | 59° |
| 2026-04-24 17:06 | 24.94851 | 46.70156 | 2080 ft | 24 kts | 60° |
| 2026-04-24 17:06 | 24.95086 | 46.70601 | 2079 ft | 33 kts | 60° |
| 2026-04-24 17:06 | 24.95191 | 46.70797 | 2079 ft | 24 kts | 59° |
| 2026-04-24 17:07 | 24.95166 | 46.70888 | 2078 ft | 13 kts | 155° |
| 2026-04-24 17:07 | 24.95043 | 46.70961 | 2078 ft | 27 kts | 150° |
| 2026-04-24 17:07 | 24.94715 | 46.71168 | 2079 ft | 27 kts | 150° |
| 2026-04-24 17:08 | 24.94535 | 46.71260 | 2079 ft | 5 kts | 221° |
| 2026-04-24 17:08 | 24.94515 | 46.71227 | 2078 ft | 6 kts | 240° |
| 2026-04-24 17:08 | 24.94495 | 46.71187 | 2079 ft | 6 kts | 240° |